createdAt,value
2022-12-14T00:02:07.161Z,8.45
2022-12-14T00:06:11.669Z,10.85
2022-12-14T00:10:14.375Z,10.40
2022-12-14T00:14:18.507Z,11.00
2022-12-14T00:18:22.713Z,12.23
2022-12-14T00:22:25.514Z,11.00
2022-12-14T00:26:30.903Z,11.05
2022-12-14T00:30:35.313Z,10.43
2022-12-14T00:34:38.026Z,10.25
2022-12-14T00:38:42.290Z,10.82
2022-12-14T00:42:44.975Z,11.10
2022-12-14T00:46:48.982Z,10.95
2022-12-14T00:50:53.711Z,11.52
2022-12-14T00:54:56.348Z,12.00
2022-12-14T00:58:59.037Z,12.13
2022-12-14T01:03:03.326Z,11.35
2022-12-14T01:07:06.088Z,12.23
2022-12-14T01:11:13.177Z,10.95
2022-12-14T01:15:16.107Z,12.07
2022-12-14T01:19:20.196Z,12.10
2022-12-14T01:23:22.907Z,12.45
2022-12-14T01:27:25.934Z,12.13
2022-12-14T01:37:51.595Z,11.65
2022-12-14T01:41:54.334Z,12.73
2022-12-14T01:45:57.332Z,11.95
2022-12-14T01:50:07.625Z,12.30
2022-12-14T01:54:14.048Z,14.23
2022-12-14T01:58:19.617Z,12.30
2022-12-14T02:02:23.066Z,12.73
2022-12-14T02:06:30.560Z,12.73
2022-12-14T02:10:35.144Z,12.50
2022-12-14T02:14:38.636Z,11.88
2022-12-14T02:18:41.455Z,13.50
2022-12-14T02:23:23.352Z,14.05
2022-12-14T02:27:47.713Z,13.20
2022-12-14T02:31:59.206Z,12.25
2022-12-14T02:36:05.953Z,11.70
2022-12-14T02:40:22.622Z,13.50
2022-12-14T02:44:40.731Z,13.40
2022-12-14T02:48:49.471Z,12.65
2022-12-14T02:52:59.538Z,13.88
2022-12-14T02:57:07.867Z,13.38
2022-12-14T03:01:13.816Z,14.65
2022-12-14T03:05:18.107Z,14.30
2022-12-14T03:09:21.004Z,14.32
2022-12-14T03:13:28.233Z,14.07
2022-12-14T03:17:34.902Z,12.30
2022-12-14T03:21:44.152Z,13.70
2022-12-14T03:53:45.915Z,13.40
2022-12-14T03:58:04.202Z,13.75
2022-12-14T04:02:16.753Z,13.85
2022-12-14T04:06:28.500Z,14.77
2022-12-14T04:10:57.813Z,13.85
2022-12-14T04:15:23.068Z,15.23
2022-12-14T04:19:32.561Z,14.60
2022-12-14T04:23:58.585Z,15.57
2022-12-14T04:28:06.967Z,14.02
2022-12-14T04:32:14.839Z,14.45
2022-12-14T04:36:23.579Z,14.88
2022-12-14T04:40:31.147Z,15.35
2022-12-14T04:44:38.454Z,14.45
2022-12-14T04:48:46.178Z,14.13
2022-12-14T04:52:54.016Z,14.88
2022-12-14T04:57:02.202Z,15.27
2022-12-14T05:01:21.019Z,14.45
2022-12-14T05:05:30.754Z,13.73
2022-12-14T05:09:37.967Z,14.75
2022-12-14T05:13:44.318Z,14.40
2022-12-14T05:17:53.760Z,16.05
2022-12-14T05:21:56.720Z,14.27
2022-12-14T05:25:59.464Z,15.73
2022-12-14T05:30:02.262Z,15.00
2022-12-14T05:34:06.398Z,15.00
2022-12-14T05:38:10.056Z,15.95
2022-12-14T05:42:12.855Z,14.15
2022-12-14T05:46:15.728Z,15.57
2022-12-14T05:50:19.943Z,15.60
2022-12-14T05:54:22.744Z,14.60
2022-12-14T05:58:25.778Z,14.07
2022-12-14T06:02:28.626Z,16.15
2022-12-14T06:06:34.210Z,16.40
2022-12-14T06:10:37.005Z,16.13
2022-12-14T06:14:39.788Z,15.52
2022-12-14T06:18:44.177Z,16.45
2022-12-14T06:22:48.324Z,16.00
2022-12-14T06:26:51.225Z,16.35
2022-12-14T06:30:54.060Z,16.25
2022-12-14T06:34:56.919Z,15.02
2022-12-14T06:39:02.737Z,16.95
2022-12-14T06:43:05.560Z,15.90
2022-12-14T06:47:08.371Z,16.58
2022-12-14T06:51:11.472Z,17.88
2022-12-14T06:55:15.884Z,17.35
2022-12-14T06:59:18.669Z,18.55
2022-12-14T07:03:21.441Z,12.18
2022-12-14T07:07:24.192Z,17.90
2022-12-14T07:11:29.389Z,16.70
2022-12-14T07:15:32.242Z,16.50
2022-12-14T07:19:35.060Z,17.77
2022-12-14T07:23:39.682Z,16.55
2022-12-14T07:27:43.839Z,18.08
2022-12-14T07:31:49.381Z,17.92
2022-12-14T07:39:55.250Z,17.48
2022-12-14T07:44:01.230Z,17.05
2022-12-14T07:48:04.142Z,18.75
2022-12-14T07:52:06.938Z,18.38
2022-12-14T07:56:12.091Z,18.75
2022-12-14T08:00:17.674Z,17.60
2022-12-14T08:04:21.031Z,19.25
2022-12-14T08:08:23.844Z,20.38
2022-12-14T08:12:26.593Z,20.60
2022-12-14T08:16:32.657Z,19.40
2022-12-14T08:20:35.539Z,20.75
2022-12-14T08:24:38.267Z,18.60
2022-12-14T08:28:41.255Z,18.60
2022-12-14T08:32:45.337Z,19.42
2022-12-14T08:36:48.067Z,20.55
2022-12-14T08:40:50.778Z,20.27
2022-12-14T08:44:53.506Z,20.15
2022-12-14T08:48:58.888Z,19.10
2022-12-14T08:53:02.060Z,20.35
2022-12-14T08:57:05.368Z,19.95
2022-12-14T09:01:12.164Z,19.67
2022-12-14T09:05:17.780Z,18.92
2022-12-14T09:09:20.581Z,20.42
2022-12-14T09:13:23.388Z,20.40
2022-12-14T09:17:26.164Z,20.50
2022-12-14T09:21:31.562Z,19.45
2022-12-14T09:25:35.035Z,20.20
2022-12-14T09:29:37.793Z,20.50
2022-12-14T09:33:40.897Z,17.27
2022-12-14T09:37:45.021Z,20.30
2022-12-14T09:42:00.849Z,21.10
2022-12-14T09:46:20.246Z,24.15
2022-12-14T09:50:24.363Z,19.88
2022-12-14T09:54:30.764Z,20.80
2022-12-14T09:58:34.795Z,20.48
2022-12-14T10:02:47.390Z,21.80
2022-12-14T10:06:56.531Z,21.67
2022-12-14T10:11:07.284Z,20.45
2022-12-14T10:15:22.041Z,19.90
2022-12-14T10:19:35.959Z,18.48
2022-12-14T10:23:42.486Z,17.10
2022-12-14T10:28:10.301Z,19.30
2022-12-14T10:32:21.663Z,19.08
2022-12-14T10:36:29.909Z,21.67
2022-12-14T10:40:35.236Z,20.65
2022-12-14T10:44:49.408Z,22.08
2022-12-14T10:49:00.691Z,20.77
2022-12-14T10:53:05.768Z,22.73
2022-12-14T10:57:08.631Z,20.33
2022-12-14T11:01:15.596Z,21.48
2022-12-14T11:05:32.495Z,21.70
2022-12-14T11:09:40.370Z,19.20
2022-12-14T11:13:50.480Z,21.35
2022-12-14T11:18:04.496Z,20.88
2022-12-14T11:22:18.657Z,20.60
2022-12-14T11:26:29.187Z,19.85
2022-12-14T11:30:32.114Z,20.15
2022-12-14T11:34:39.350Z,20.60
2022-12-14T11:38:42.802Z,20.45
2022-12-14T11:42:49.791Z,18.85
2022-12-14T11:46:56.442Z,19.88
2022-12-14T11:51:12.594Z,19.90
2022-12-14T11:55:24.672Z,18.40
2022-12-14T11:59:37.456Z,18.70
2022-12-14T12:03:43.921Z,19.08
2022-12-14T12:07:53.632Z,19.23
2022-12-14T12:11:56.454Z,18.75
2022-12-14T12:16:01.258Z,19.63
2022-12-14T12:20:13.827Z,20.02
2022-12-14T12:24:22.528Z,19.90
2022-12-14T12:28:29.391Z,20.45
2022-12-14T12:32:38.428Z,18.48
2022-12-14T12:37:02.744Z,18.58
2022-12-14T12:41:13.436Z,19.75
2022-12-14T12:45:21.856Z,18.90
2022-12-14T12:49:24.793Z,20.13
2022-12-14T12:53:31.820Z,19.80
2022-12-14T12:57:41.671Z,20.40
2022-12-14T13:01:48.132Z,19.98
2022-12-14T13:05:55.194Z,19.70
2022-12-14T13:10:05.789Z,18.92
2022-12-14T13:14:24.555Z,18.58
2022-12-14T13:18:56.733Z,17.83
2022-12-14T13:22:53.708Z,18.20
2022-12-14T13:27:18.123Z,17.90
2022-12-14T13:31:36.256Z,20.05
2022-12-14T13:36:10.457Z,18.90
2022-12-14T13:40:41.515Z,19.33
2022-12-14T13:44:56.987Z,19.98
2022-12-14T13:49:06.026Z,20.05
2022-12-14T13:53:17.265Z,20.42
2022-12-14T13:57:23.861Z,20.75
2022-12-14T14:02:01.155Z,22.15
2022-12-14T14:06:09.471Z,21.48
2022-12-14T14:10:30.254Z,22.98
2022-12-14T14:14:44.628Z,22.35
2022-12-14T14:18:51.688Z,21.90
2022-12-14T14:23:27.727Z,23.60
2022-12-14T14:27:37.795Z,25.42
2022-12-14T14:31:48.943Z,25.27
2022-12-14T14:35:51.810Z,26.85
2022-12-14T14:40:18.735Z,24.40
2022-12-14T14:44:37.961Z,23.55
2022-12-14T14:48:43.772Z,25.05
2022-12-14T14:52:58.665Z,22.83
2022-12-14T14:57:02.438Z,21.88
2022-12-14T15:01:25.006Z,24.13
2022-12-14T15:05:44.768Z,25.15
2022-12-14T15:09:49.174Z,24.90
2022-12-14T15:13:55.406Z,26.63
2022-12-14T15:22:19.425Z,25.40
2022-12-14T15:26:25.638Z,29.02
2022-12-14T15:34:32.101Z,28.58
2022-12-14T15:38:38.148Z,28.13
2022-12-14T15:42:47.308Z,28.05
2022-12-14T15:46:55.089Z,25.23
2022-12-14T15:51:03.002Z,27.13
2022-12-14T15:55:20.946Z,26.25
2022-12-14T15:59:26.196Z,26.88
2022-12-14T16:03:33.177Z,25.90
2022-12-14T16:07:39.462Z,28.13
2022-12-14T16:11:46.601Z,27.98
2022-12-14T16:15:49.897Z,28.80
2022-12-14T16:19:59.994Z,28.77
2022-12-14T16:24:22.077Z,27.92
2022-12-14T16:28:29.805Z,27.55
2022-12-14T16:32:32.801Z,27.23
2022-12-14T16:36:36.672Z,29.33
2022-12-14T16:40:43.194Z,26.55
2022-12-14T16:44:48.665Z,26.70
2022-12-14T16:49:19.618Z,25.33
2022-12-14T16:54:12.260Z,29.58
2022-12-14T16:58:18.793Z,27.52
2022-12-14T17:02:30.243Z,25.23
2022-12-14T17:06:47.382Z,27.10
2022-12-14T17:10:50.809Z,26.85
2022-12-14T17:21:30.741Z,28.27
2022-12-14T17:25:35.516Z,27.35
2022-12-14T17:29:38.302Z,31.48
2022-12-14T17:33:42.549Z,37.50
2022-12-14T17:38:20.872Z,22.85
2022-12-14T17:47:40.605Z,27.70
2022-12-14T17:51:46.972Z,27.95
2022-12-14T18:13:32.350Z,18.88
2022-12-14T18:17:35.431Z,17.30
2022-12-14T18:21:38.109Z,17.23
2022-12-14T18:25:53.698Z,16.95
2022-12-14T18:29:57.810Z,17.47
2022-12-14T18:34:00.502Z,19.45
2022-12-14T18:38:19.527Z,19.90
2022-12-14T18:42:22.891Z,21.02
2022-12-14T18:46:30.685Z,19.77
2022-12-14T18:50:36.192Z,21.90
2022-12-14T18:54:42.336Z,22.27
2022-12-14T18:58:46.394Z,20.42
2022-12-14T19:02:51.538Z,20.73
2022-12-14T19:06:54.858Z,21.83
2022-12-14T19:10:59.373Z,19.33
2022-12-14T19:15:02.849Z,18.95
2022-12-14T19:19:07.235Z,16.88
2022-12-14T19:23:15.998Z,16.02
2022-12-14T19:27:35.706Z,15.65
2022-12-14T19:31:42.358Z,15.75
2022-12-14T19:35:48.609Z,16.15
2022-12-14T19:43:57.229Z,15.93
2022-12-14T19:48:00.549Z,15.90
2022-12-14T19:52:59.145Z,15.50
2022-12-14T19:57:03.883Z,14.77
2022-12-14T20:01:10.582Z,15.52
2022-12-14T20:05:14.764Z,15.95
2022-12-14T20:09:18.991Z,17.20
2022-12-14T20:13:25.167Z,16.38
2022-12-14T20:21:31.398Z,15.68
2022-12-14T20:25:34.331Z,15.40
2022-12-14T20:29:39.811Z,15.27
2022-12-14T20:33:43.418Z,16.55
2022-12-14T20:37:46.626Z,14.50
2022-12-14T20:41:49.942Z,15.02
2022-12-14T20:45:54.498Z,15.52
2022-12-14T20:49:57.345Z,13.75
2022-12-14T20:54:00.331Z,14.55
2022-12-14T20:58:03.256Z,12.88
2022-12-14T21:02:08.047Z,13.32
2022-12-14T21:06:11.702Z,12.80
2022-12-14T21:10:14.524Z,11.60
2022-12-14T21:14:18.151Z,11.93
2022-12-14T21:18:24.599Z,12.27
2022-12-14T21:22:31.414Z,12.68
2022-12-14T21:26:35.346Z,12.73
2022-12-14T21:36:26.623Z,12.55
2022-12-14T21:41:12.163Z,13.23
2022-12-14T21:45:15.015Z,14.52
2022-12-14T21:49:18.169Z,14.40
2022-12-14T21:53:22.351Z,12.95
2022-12-14T21:57:49.370Z,13.82
2022-12-14T22:02:25.581Z,15.02
2022-12-14T22:12:17.566Z,13.32
2022-12-14T22:16:20.463Z,12.80
2022-12-14T22:20:23.192Z,14.15
2022-12-14T22:24:27.775Z,13.73
2022-12-14T22:28:31.828Z,12.77
2022-12-14T22:32:34.563Z,14.65
2022-12-14T22:36:37.258Z,13.43
2022-12-14T22:40:39.973Z,12.60
2022-12-14T22:44:44.147Z,12.60
2022-12-14T22:48:46.894Z,11.85
2022-12-14T22:52:49.906Z,11.57
2022-12-14T22:56:56.666Z,12.77
2022-12-14T23:01:00.932Z,12.95
2022-12-14T23:05:03.862Z,12.10
2022-12-14T23:09:25.075Z,11.80
2022-12-14T23:13:45.324Z,12.20
2022-12-14T23:18:06.942Z,11.48
2022-12-14T23:22:27.046Z,12.02
2022-12-14T23:26:47.377Z,12.88
2022-12-14T23:31:07.914Z,12.73
2022-12-14T23:35:29.294Z,13.48
2022-12-14T23:39:49.693Z,13.18
2022-12-14T23:44:10.024Z,13.10
2022-12-14T23:48:30.464Z,13.48
2022-12-14T23:52:52.066Z,14.32
